CYYJVICTORIA INTL
METARs for airports near CYYJ, sorted by distance:
N 0 nm 64' CYYJ 142200Z 13012G18KT 30SM SKC 24/12 A3000
SE 17 nm 112' KFHR 142153Z 24007KT 10SM CLR 24/12 A3004
E 20 nm 34' KORS 142215Z 00000KT 9SM CLR 21/15 A3002
NW 30 nm 92' CYCD 142200Z VRB08KT 30SM SKC 28/14 A3000
S 30 nm 13' KNOW 142215Z 29012KT 10SM CLR 17/13 A3005
S 31 nm 291' KCLM 142153Z 29009KT 10SM CLR 21/13 A3006
N 34 nm 14' CYVR 142200Z 25005KT 190V280 20SM SKC 22/15 A3002
SE 35 nm 47' KNUW 142153Z 28006KT 10SM FEW030 17/13 A3005
E 36 nm 171' KBLI 142153Z 21006KT 10SM CLR 25/13 A3002
E 41 nm 145' KBVS 142215Z 00000KT 6SM HZ CLR 26/15 A3003
SE 58 nm 141' KAWO 142156Z 20007KT 10SM 28/14 A3002
SW 62 nm 194' KUIL 142153Z 26007KT 10SM OVC008 16/13 A3012
SE 63 nm 606' KPAE 142153Z 30008KT 10SM CLR 28/13 A3004
S 74 nm 444' KPWT 142156Z 23008KT 10SM CLR 28/16 A3004
SE 80 nm 21' KBFI 142153Z 24008KT 10SM CLR 29/13 A3001
NW 82 nm 425' CYPW 142200Z 29006KT 240V300 30SM SKC 24/15 A3003
SE 84 nm 32' KRNT 142153Z 22007G14KT 10SM CLR 29/11 A3001
SE 84 nm 432' KSEA 142153Z 20009KT 10SM FEW030 27/12 A3003
S 85 nm 272' KSHN 142153Z 22017G23KT 10SM CLR 25/13 A3002
SE 89 nm 294' KTIW 142153Z 24008KT 10SM CLR 28/14 A3004
W 96 nm 80' CYAZ 142200Z 16007KT 15SM BKN004 14/12 A3009
SE 98 nm 322' KTCM 142155Z 32010KT 10SM CLR 29/15 A3002
TAFs for airports near CYYJ, sorted by distance:
S 31 nm 291' KCLM KCLM 141725Z 1418/1518 32009KT P6SM SKC
  FM150000 29010KT P6SM SKC
  FM150900 32006KT P6SM SCT025
SE 35 nm 47' KNUW TAF KNUW 1415/1515 25007KT 9999 SKC QNH2999INS
  TEMPO 1415/1419 8000 BR MIFG FEW010
  FM142100 27009KT 9999 SKC QNH3000INS
  BECMG 1506/1507 VRB06KT 9000 BR SCT009 QNH3002INS TX20/1422Z TN11/1512Z FS30190
E 36 nm 171' KBLI KBLI 141725Z 1418/1518 19006KT P6SM SKC
SE 63 nm 606' KPAE KPAE 141725Z 1418/1518 27005KT P6SM SKC
  FM142200 34007KT P6SM SKC
  FM150600 VRB04KT P6SM SKC
  FM151300 22004KT P6SM SCT015
  FM151700 25006KT P6SM SKC
S 74 nm 444' KPWT TAF KPWT 141725Z 1418/1518 22005KT P6SM SKC
  FM150600 19004KT P6SM SKC
  FM151000 20004KT P6SM BKN015
  FM151700 22004KT P6SM SCT025
SE 80 nm 21' KBFI KBFI 141725Z 1418/1518 26006KT P6SM SKC
  FM150300 VRB03KT P6SM SKC
  FM151300 20004KT P6SM SCT015
  FM151700 22007KT P6SM SKC
SE 84 nm 432' KSEA KSEA 142058Z 1421/1524 21008KT P6SM SKC
  FM151300 20004KT P6SM SCT015
  FM151700 22007KT P6SM SKC
SE 98 nm 322' KTCM TAF
  AMD KTCM 141900Z 1419/1519 23006KT 9999 SKC QNH3003INS
  BECMG 1420/1421 23010G15KT 9999 SKC QNH3003INS
  TEMPO 1421/1524 24015G20KT
  BECMG 1512/1513 20006KT 9999 BKN020 QNH3004INS
  BECMG 1516/1517 20006KT 9999 SKC QNH3011INS TX30/1421Z TN13/1509Z LAST NO
  AMDS AFT 1419 NEXT 1513

Shortcut to this page: http://wxbay.com.

Data may contain errors.